sensor_id;sensor_type;location;lat;lon;timestamp;pressure;altitude;pressure_sealevel;temperature;humidity
72587;BME280;60621;49.576;11.024;2023-04-06T00:00:14;98652.28;;;1.97;56.21
72587;BME280;60621;49.576;11.024;2023-04-06T00:01:15;98650.16;;;1.99;56.42
72587;BME280;60621;49.576;11.024;2023-04-06T00:02:17;98658.06;;;2.08;56.05
72587;BME280;60621;49.576;11.024;2023-04-06T00:03:18;98651.44;;;2.01;55.53
72587;BME280;60621;49.576;11.024;2023-04-06T00:04:20;98653.06;;;1.97;55.49
72587;BME280;60621;49.576;11.024;2023-04-06T00:05:22;98655.47;;;1.94;55.90
72587;BME280;60621;49.576;11.024;2023-04-06T00:06:24;98651.81;;;1.81;56.12
72587;BME280;60621;49.576;11.024;2023-04-06T00:07:25;98652.94;;;1.75;56.48
72587;BME280;60621;49.576;11.024;2023-04-06T00:08:27;98653.03;;;1.70;56.90
72587;BME280;60621;49.576;11.024;2023-04-06T00:09:29;98645.34;;;1.78;57.28
72587;BME280;60621;49.576;11.024;2023-04-06T00:10:30;98653.53;;;1.86;57.30
72587;BME280;60621;49.576;11.024;2023-04-06T00:11:32;98646.97;;;1.88;57.64
72587;BME280;60621;49.576;11.024;2023-04-06T00:12:33;98639.38;;;1.92;57.24
72587;BME280;60621;49.576;11.024;2023-04-06T00:13:34;98643.16;;;1.99;57.75
72587;BME280;60621;49.576;11.024;2023-04-06T00:14:36;98641.22;;;1.91;57.04
72587;BME280;60621;49.576;11.024;2023-04-06T00:15:38;98636.09;;;1.86;57.30
72587;BME280;60621;49.576;11.024;2023-04-06T00:16:39;98641.22;;;1.91;57.53
72587;BME280;60621;49.576;11.024;2023-04-06T00:17:41;98639.75;;;1.99;57.49
72587;BME280;60621;49.576;11.024;2023-04-06T00:18:43;98634.28;;;2.00;57.44
72587;BME280;60621;49.576;11.024;2023-04-06T00:19:44;98644.00;;;1.81;57.26
72587;BME280;60621;49.576;11.024;2023-04-06T00:20:46;98642.06;;;1.73;57.52
72587;BME280;60621;49.576;11.024;2023-04-06T00:21:47;98634.94;;;1.78;57.50
72587;BME280;60621;49.576;11.024;2023-04-06T00:22:49;98638.09;;;1.89;57.28
72587;BME280;60621;49.576;11.024;2023-04-06T00:23:50;98628.09;;;1.83;56.88
72587;BME280;60621;49.576;11.024;2023-04-06T00:24:52;98636.75;;;1.78;57.65
72587;BME280;60621;49.576;11.024;2023-04-06T00:25:53;98635.34;;;1.86;57.71
72587;BME280;60621;49.576;11.024;2023-04-06T00:26:55;98632.03;;;1.94;57.32
72587;BME280;60621;49.576;11.024;2023-04-06T00:27:57;98631.78;;;1.95;57.25
72587;BME280;60621;49.576;11.024;2023-04-06T00:28:58;98636.59;;;2.02;56.87
72587;BME280;60621;49.576;11.024;2023-04-06T00:30:01;98633.41;;;2.05;56.60
72587;BME280;60621;49.576;11.024;2023-04-06T00:31:02;98639.09;;;2.07;57.06
72587;BME280;60621;49.576;11.024;2023-04-06T00:32:04;98639.47;;;2.00;56.85
72587;BME280;60621;49.576;11.024;2023-04-06T00:33:05;98640.16;;;1.92;57.16
72587;BME280;60621;49.576;11.024;2023-04-06T00:34:10;98636.22;;;1.95;57.63
72587;BME280;60621;49.576;11.024;2023-04-06T00:35:11;98639.94;;;1.89;57.05
72587;BME280;60621;49.576;11.024;2023-04-06T00:36:13;98646.97;;;1.88;57.61
72587;BME280;60621;49.576;11.024;2023-04-06T00:37:14;98628.66;;;1.93;57.07
72587;BME280;60621;49.576;11.024;2023-04-06T00:38:16;98636.22;;;1.95;57.10
72587;BME280;60621;49.576;11.024;2023-04-06T00:39:18;98631.66;;;1.87;57.05
72587;BME280;60621;49.576;11.024;2023-04-06T00:40:21;98638.94;;;1.71;56.96
72587;BME280;60621;49.576;11.024;2023-04-06T00:41:22;98634.81;;;1.70;57.10
72587;BME280;60621;49.576;11.024;2023-04-06T00:42:24;98632.09;;;1.61;57.74
72587;BME280;60621;49.576;11.024;2023-04-06T00:43:29;98634.91;;;1.65;57.53
72587;BME280;60621;49.576;11.024;2023-04-06T00:44:30;98638.56;;;1.64;57.27
72587;BME280;60621;49.576;11.024;2023-04-06T00:45:33;98631.16;;;1.71;57.30
72587;BME280;60621;49.576;11.024;2023-04-06T00:46:35;98633.16;;;1.60;57.60
72587;BME280;60621;49.576;11.024;2023-04-06T00:47:37;98637.38;;;1.56;57.72
72587;BME280;60621;49.576;11.024;2023-04-06T00:48:38;98631.25;;;1.52;57.74
72587;BME280;60621;49.576;11.024;2023-04-06T00:49:40;98630.19;;;1.53;57.57
72587;BME280;60621;49.576;11.024;2023-04-06T00:50:42;98629.78;;;1.46;58.05
72587;BME280;60621;49.576;11.024;2023-04-06T00:51:44;98627.16;;;1.46;58.13
72587;BME280;60621;49.576;11.024;2023-04-06T00:52:45;98626.03;;;1.52;58.68
72587;BME280;60621;49.576;11.024;2023-04-06T00:53:47;98627.75;;;1.57;58.11
72587;BME280;60621;49.576;11.024;2023-04-06T00:54:49;98619.28;;;1.51;58.43
72587;BME280;60621;49.576;11.024;2023-04-06T00:55:52;98625.44;;;1.55;57.96
72587;BME280;60621;49.576;11.024;2023-04-06T00:56:53;98632.19;;;1.56;58.24
72587;BME280;60621;49.576;11.024;2023-04-06T00:57:57;98632.97;;;1.57;58.87
72587;BME280;60621;49.576;11.024;2023-04-06T00:58:59;98634.53;;;1.58;58.30
72587;BME280;60621;49.576;11.024;2023-04-06T01:00:01;98626.53;;;1.54;58.45
72587;BME280;60621;49.576;11.024;2023-04-06T01:01:03;98627.19;;;1.60;58.58
72587;BME280;60621;49.576;11.024;2023-04-06T01:02:04;98620.94;;;1.61;58.59
72587;BME280;60621;49.576;11.024;2023-04-06T01:03:06;98625.09;;;1.62;58.52
72587;BME280;60621;49.576;11.024;2023-04-06T01:04:08;98625.88;;;1.62;58.38
72587;BME280;60621;49.576;11.024;2023-04-06T01:05:10;98621.44;;;1.63;58.45
72587;BME280;60621;49.576;11.024;2023-04-06T01:06:12;98620.16;;;1.60;58.36
72587;BME280;60621;49.576;11.024;2023-04-06T01:07:14;98625.06;;;1.48;58.44
72587;BME280;60621;49.576;11.024;2023-04-06T01:08:15;98626.19;;;1.42;58.40
72587;BME280;60621;49.576;11.024;2023-04-06T01:09:17;98622.06;;;1.41;58.49
72587;BME280;60621;49.576;11.024;2023-04-06T01:10:23;98625.34;;;1.46;58.71
72587;BME280;60621;49.576;11.024;2023-04-06T01:11:25;98621.41;;;1.49;58.92
72587;BME280;60621;49.576;11.024;2023-04-06T01:12:27;98625.75;;;1.53;58.64
72587;BME280;60621;49.576;11.024;2023-04-06T01:13:28;98629.31;;;1.58;58.41
72587;BME280;60621;49.576;11.024;2023-04-06T01:14:30;98621.69;;;1.61;58.45
72587;BME280;60621;49.576;11.024;2023-04-06T01:15:33;98632.09;;;1.61;58.50
72587;BME280;60621;49.576;11.024;2023-04-06T01:16:36;98627.09;;;1.65;58.58
72587;BME280;60621;49.576;11.024;2023-04-06T01:17:38;98624.59;;;1.60;58.36
72587;BME280;60621;49.576;11.024;2023-04-06T01:18:39;98620.25;;;1.55;58.42
72587;BME280;60621;49.576;11.024;2023-04-06T01:19:41;98625.34;;;1.46;57.89
72587;BME280;60621;49.576;11.024;2023-04-06T01:20:43;98625.34;;;1.46;57.93
72587;BME280;60621;49.576;11.024;2023-04-06T01:21:44;98622.66;;;1.51;58.22
72587;BME280;60621;49.576;11.024;2023-04-06T01:22:45;98624.56;;;1.46;58.55
72587;BME280;60621;49.576;11.024;2023-04-06T01:23:47;98620.72;;;1.43;58.47
72587;BME280;60621;49.576;11.024;2023-04-06T01:24:48;98627.94;;;1.46;59.11
72587;BME280;60621;49.576;11.024;2023-04-06T01:25:50;98614.00;;;1.56;58.63
72587;BME280;60621;49.576;11.024;2023-04-06T01:26:51;98618.13;;;1.43;59.03
72587;BME280;60621;49.576;11.024;2023-04-06T01:27:53;98611.66;;;1.41;58.65
72587;BME280;60621;49.576;11.024;2023-04-06T01:28:55;98612.81;;;1.35;59.19
72587;BME280;60621;49.576;11.024;2023-04-06T01:29:56;98608.81;;;1.23;59.54
72587;BME280;60621;49.576;11.024;2023-04-06T01:30:58;98612.97;;;1.24;59.88
72587;BME280;60621;49.576;11.024;2023-04-06T01:31:59;98615.75;;;1.28;59.53
72587;BME280;60621;49.576;11.024;2023-04-06T01:33:01;98609.53;;;1.29;59.26
72587;BME280;60621;49.576;11.024;2023-04-06T01:34:02;98608.25;;;1.26;59.08
72587;BME280;60621;49.576;11.024;2023-04-06T01:35:04;98611.31;;;1.15;59.78
72587;BME280;60621;49.576;11.024;2023-04-06T01:36:06;98603.09;;;1.08;59.76
72587;BME280;60621;49.576;11.024;2023-04-06T01:37:08;98602.63;;;1.06;60.24
72587;BME280;60621;49.576;11.024;2023-04-06T01:38:09;98602.97;;;0.99;60.39
72587;BME280;60621;49.576;11.024;2023-04-06T01:39:11;98605.38;;;0.95;60.21
72587;BME280;60621;49.576;11.024;2023-04-06T01:40:12;98599.28;;;0.86;60.62
72587;BME280;60621;49.576;11.024;2023-04-06T01:41:15;98600.53;;;0.89;60.35
72587;BME280;60621;49.576;11.024;2023-04-06T01:42:16;98596.31;;;0.93;60.17
72587;BME280;60621;49.576;11.024;2023-04-06T01:43:18;98597.00;;;0.98;60.27
72587;BME280;60621;49.576;11.024;2023-04-06T01:44:19;98606.19;;;1.10;60.03
72587;BME280;60621;49.576;11.024;2023-04-06T01:45:21;98596.84;;;1.09;59.87
72587;BME280;60621;49.576;11.024;2023-04-06T01:46:22;98600.03;;;1.06;60.01
72587;BME280;60621;49.576;11.024;2023-04-06T01:47:24;98598.34;;;0.96;59.80
72587;BME280;60621;49.576;11.024;2023-04-06T01:48:26;98602.06;;;0.90;60.30
72587;BME280;60621;49.576;11.024;2023-04-06T01:49:28;98599.69;;;0.93;60.29
72587;BME280;60621;49.576;11.024;2023-04-06T01:50:30;98604.09;;;0.93;60.64
72587;BME280;60621;49.576;11.024;2023-04-06T01:51:31;98600.19;;;0.95;60.88
72587;BME280;60621;49.576;11.024;2023-04-06T01:52:33;98601.94;;;1.00;60.50
72587;BME280;60621;49.576;11.024;2023-04-06T01:53:34;98600.38;;;0.99;61.10
72587;BME280;60621;49.576;11.024;2023-04-06T01:54:36;98601.44;;;0.98;61.12
72587;BME280;60621;49.576;11.024;2023-04-06T01:55:38;98598.19;;;1.06;61.15
72587;BME280;60621;49.576;11.024;2023-04-06T01:56:39;98595.16;;;0.99;60.76
72587;BME280;60621;49.576;11.024;2023-04-06T01:57:41;98601.47;;;1.12;60.75
72587;BME280;60621;49.576;11.024;2023-04-06T01:58:43;98600.41;;;1.13;60.50
72587;BME280;60621;49.576;11.024;2023-04-06T01:59:45;98600.41;;;1.13;60.35
72587;BME280;60621;49.576;11.024;2023-04-06T02:00:46;98599.16;;;1.10;60.69
72587;BME280;60621;49.576;11.024;2023-04-06T02:01:47;98602.94;;;1.18;60.25
72587;BME280;60621;49.576;11.024;2023-04-06T02:02:49;98599.84;;;1.16;60.68
72587;BME280;60621;49.576;11.024;2023-04-06T02:03:51;98596.88;;;1.22;60.34
72587;BME280;60621;49.576;11.024;2023-04-06T02:04:53;98599.84;;;1.16;60.39
72587;BME280;60621;49.576;11.024;2023-04-06T02:05:54;98595.69;;;1.01;60.53
72587;BME280;60621;49.576;11.024;2023-04-06T02:06:56;98604.94;;;1.07;60.71
72587;BME280;60621;49.576;11.024;2023-04-06T02:07:57;98601.84;;;1.05;60.65
72587;BME280;60621;49.576;11.024;2023-04-06T02:08:59;98594.81;;;1.06;60.31
72587;BME280;60621;49.576;11.024;2023-04-06T02:10:02;98604.84;;;1.12;59.72
72587;BME280;60621;49.576;11.024;2023-04-06T02:11:04;98599.00;;;1.20;59.83
72587;BME280;60621;49.576;11.024;2023-04-06T02:12:05;98599.00;;;1.20;59.67
72587;BME280;60621;49.576;11.024;2023-04-06T02:13:07;98599.56;;;1.17;59.40
72587;BME280;60621;49.576;11.024;2023-04-06T02:14:08;98599.56;;;1.17;59.30
72587;BME280;60621;49.576;11.024;2023-04-06T02:15:10;98601.56;;;1.07;59.57
72587;BME280;60621;49.576;11.024;2023-04-06T02:16:11;98595.16;;;0.99;59.36
72587;BME280;60621;49.576;11.024;2023-04-06T02:17:13;98597.84;;;0.94;59.33
72587;BME280;60621;49.576;11.024;2023-04-06T02:18:14;98594.44;;;0.80;59.16
72587;BME280;60621;49.576;11.024;2023-04-06T02:19:19;98601.16;;;0.81;59.70
72587;BME280;60621;49.576;11.024;2023-04-06T02:20:20;98594.84;;;0.87;60.42
72587;BME280;60621;49.576;11.024;2023-04-06T02:21:22;98595.34;;;0.89;60.01
72587;BME280;60621;49.576;11.024;2023-04-06T02:22:23;98596.38;;;0.88;59.59
72587;BME280;60621;49.576;11.024;2023-04-06T02:23:25;98588.88;;;0.86;59.56
72587;BME280;60621;49.576;11.024;2023-04-06T02:24:27;98594.16;;;0.81;60.47
72587;BME280;60621;49.576;11.024;2023-04-06T02:25:28;98595.34;;;0.89;60.07
72587;BME280;60621;49.576;11.024;2023-04-06T02:26:30;98595.50;;;0.79;59.34
72587;BME280;60621;49.576;11.024;2023-04-06T02:27:31;98592.41;;;0.76;59.54
72587;BME280;60621;49.576;11.024;2023-04-06T02:28:33;98588.06;;;0.72;59.66
72587;BME280;60621;49.576;11.024;2023-04-06T02:29:34;98592.34;;;0.82;60.32
72587;BME280;60621;49.576;11.024;2023-04-06T02:30:36;98594.09;;;0.86;59.47
72587;BME280;60621;49.576;11.024;2023-04-06T02:31:37;98588.69;;;0.83;60.17
72587;BME280;60621;49.576;11.024;2023-04-06T02:32:39;98590.63;;;0.91;59.63
72587;BME280;60621;49.576;11.024;2023-04-06T02:33:41;98591.59;;;0.95;59.43
72587;BME280;60621;49.576;11.024;2023-04-06T02:34:42;98594.78;;;0.92;59.93
72587;BME280;60621;49.576;11.024;2023-04-06T02:35:44;98590.97;;;0.84;59.76
72587;BME280;60621;49.576;11.024;2023-04-06T02:36:46;98597.94;;;0.89;59.90
72587;BME280;60621;49.576;11.024;2023-04-06T02:37:48;98593.25;;;0.91;59.28
72587;BME280;60621;49.576;11.024;2023-04-06T02:38:49;98592.72;;;0.89;60.08
72587;BME280;60621;49.576;11.024;2023-04-06T02:39:51;98588.03;;;0.91;60.12
72587;BME280;60621;49.576;11.024;2023-04-06T02:40:53;98593.03;;;0.87;60.15
72587;BME280;60621;49.576;11.024;2023-04-06T02:41:54;98596.31;;;0.93;59.54
72587;BME280;60621;49.576;11.024;2023-04-06T02:42:57;98594.78;;;0.92;59.42
72587;BME280;60621;49.576;11.024;2023-04-06T02:43:58;98584.19;;;0.88;59.09
72587;BME280;60621;49.576;11.024;2023-04-06T02:45:00;98584.72;;;0.85;59.52
72587;BME280;60621;49.576;11.024;2023-04-06T02:46:01;98589.66;;;0.87;59.33
72587;BME280;60621;49.576;11.024;2023-04-06T02:47:03;98589.16;;;0.85;59.59
72587;BME280;60621;49.576;11.024;2023-04-06T02:48:05;98595.28;;;0.75;59.59
72587;BME280;60621;49.576;11.024;2023-04-06T02:49:06;98594.94;;;0.82;59.73
72587;BME280;60621;49.576;11.024;2023-04-06T02:50:09;98582.50;;;0.79;60.01
72587;BME280;60621;49.576;11.024;2023-04-06T02:51:10;98585.03;;;0.65;60.16
72587;BME280;60621;49.576;11.024;2023-04-06T02:52:12;98585.72;;;0.70;59.83
72587;BME280;60621;49.576;11.024;2023-04-06T02:53:13;98584.88;;;0.75;60.22
72587;BME280;60621;49.576;11.024;2023-04-06T02:54:15;98582.97;;;0.81;60.20
72587;BME280;60621;49.576;11.024;2023-04-06T02:55:16;98586.78;;;0.88;59.61
72587;BME280;60621;49.576;11.024;2023-04-06T02:56:20;98585.72;;;0.89;59.75
72587;BME280;60621;49.576;11.024;2023-04-06T02:57:22;98590.91;;;0.89;59.96
72587;BME280;60621;49.576;11.024;2023-04-06T02:58:24;98592.97;;;0.73;60.18
72587;BME280;60621;49.576;11.024;2023-04-06T02:59:25;98590.78;;;0.62;59.58
72587;BME280;60621;49.576;11.024;2023-04-06T03:00:27;98589.16;;;0.66;59.52
72587;BME280;60621;49.576;11.024;2023-04-06T03:01:29;98590.91;;;0.70;59.29
72587;BME280;60621;49.576;11.024;2023-04-06T03:02:30;98599.47;;;0.71;59.72
72587;BME280;60621;49.576;11.024;2023-04-06T03:03:32;98595.56;;;0.73;60.05
72587;BME280;60621;49.576;11.024;2023-04-06T03:04:34;98597.59;;;0.76;59.53
72587;BME280;60621;49.576;11.024;2023-04-06T03:05:35;98595.63;;;0.68;59.48
72587;BME280;60621;49.576;11.024;2023-04-06T03:06:37;98596.97;;;0.66;59.77
72587;BME280;60621;49.576;11.024;2023-04-06T03:07:38;98600.84;;;0.68;59.97
72587;BME280;60621;49.576;11.024;2023-04-06T03:08:40;98601.03;;;0.72;59.10
72587;BME280;60621;49.576;11.024;2023-04-06T03:09:41;98592.66;;;0.75;59.78
72587;BME280;60621;49.576;11.024;2023-04-06T03:10:43;98595.09;;;0.71;59.54
72587;BME280;60621;49.576;11.024;2023-04-06T03:11:44;98600.31;;;0.66;60.20
72587;BME280;60621;49.576;11.024;2023-04-06T03:12:46;98596.41;;;0.69;60.61
72587;BME280;60621;49.576;11.024;2023-04-06T03:13:47;98590.72;;;0.67;59.88
72587;BME280;60621;49.576;11.024;2023-04-06T03:14:49;98591.91;;;0.74;59.28
72587;BME280;60621;49.576;11.024;2023-04-06T03:15:50;98594.66;;;0.64;59.30
72587;BME280;60621;49.576;11.024;2023-04-06T03:16:52;98594.94;;;0.63;59.63
72587;BME280;60621;49.576;11.024;2023-04-06T03:17:54;98596.56;;;0.59;59.44
72587;BME280;60621;49.576;11.024;2023-04-06T03:18:56;98596.41;;;0.50;59.08
72587;BME280;60621;49.576;11.024;2023-04-06T03:19:59;98590.00;;;0.42;59.78
72587;BME280;60621;49.576;11.024;2023-04-06T03:21:01;98589.25;;;0.42;59.86
72587;BME280;60621;49.576;11.024;2023-04-06T03:22:02;98600.69;;;0.41;60.29
72587;BME280;60621;49.576;11.024;2023-04-06T03:23:04;98594.44;;;0.42;60.40
72587;BME280;60621;49.576;11.024;2023-04-06T03:24:06;98599.56;;;0.47;60.80
72587;BME280;60621;49.576;11.024;2023-04-06T03:25:07;98588.41;;;0.46;60.51
72587;BME280;60621;49.576;11.024;2023-04-06T03:26:10;98592.28;;;0.49;60.21
72587;BME280;60621;49.576;11.024;2023-04-06T03:27:11;98597.53;;;0.44;60.70
72587;BME280;60621;49.576;11.024;2023-04-06T03:28:13;98590.75;;;0.48;60.69
72587;BME280;60621;49.576;11.024;2023-04-06T03:29:14;98591.75;;;0.47;60.85
72587;BME280;60621;49.576;11.024;2023-04-06T03:30:16;98603.66;;;0.53;60.95
72587;BME280;60621;49.576;11.024;2023-04-06T03:31:21;98594.78;;;0.54;60.33
72587;BME280;60621;49.576;11.024;2023-04-06T03:32:22;98588.69;;;0.64;60.38
72587;BME280;60621;49.576;11.024;2023-04-06T03:33:24;98588.97;;;0.62;60.15
72587;BME280;60621;49.576;11.024;2023-04-06T03:34:28;98595.13;;;0.66;59.98
72587;BME280;60621;49.576;11.024;2023-04-06T03:35:29;98594.44;;;0.61;60.47
72587;BME280;60621;49.576;11.024;2023-04-06T03:36:31;98598.38;;;0.58;60.66
72587;BME280;60621;49.576;11.024;2023-04-06T03:37:33;98594.16;;;0.62;60.88
72587;BME280;60621;49.576;11.024;2023-04-06T03:38:34;98599.63;;;0.61;60.26
72587;BME280;60621;49.576;11.024;2023-04-06T03:39:35;98600.91;;;0.63;60.33
72587;BME280;60621;49.576;11.024;2023-04-06T03:40:37;98601.31;;;0.51;60.47
72587;BME280;60621;49.576;11.024;2023-04-06T03:41:38;98602.88;;;0.53;60.57
72587;BME280;60621;49.576;11.024;2023-04-06T03:42:40;98599.22;;;0.54;60.83
72587;BME280;60621;49.576;11.024;2023-04-06T03:43:41;98601.81;;;0.54;60.61
72587;BME280;60621;49.576;11.024;2023-04-06T03:44:43;98603.66;;;0.53;60.67
72587;BME280;60621;49.576;11.024;2023-04-06T03:45:44;98604.97;;;0.50;60.26
72587;BME280;60621;49.576;11.024;2023-04-06T03:46:46;98595.84;;;0.53;60.47
72587;BME280;60621;49.576;11.024;2023-04-06T03:47:47;98597.47;;;0.49;60.64
72587;BME280;60621;49.576;11.024;2023-04-06T03:48:49;98604.91;;;0.56;60.62
72587;BME280;60621;49.576;11.024;2023-04-06T03:49:50;98601.16;;;0.62;60.59
72587;BME280;60621;49.576;11.024;2023-04-06T03:50:52;98602.59;;;0.54;60.17
72587;BME280;60621;49.576;11.024;2023-04-06T03:51:53;98610.66;;;0.53;60.96
72587;BME280;60621;49.576;11.024;2023-04-06T03:52:55;98599.28;;;0.48;60.69
72587;BME280;60621;49.576;11.024;2023-04-06T03:53:56;98603.66;;;0.53;60.60
72587;BME280;60621;49.576;11.024;2023-04-06T03:54:58;98605.94;;;0.55;60.65
72587;BME280;60621;49.576;11.024;2023-04-06T03:56:00;98599.91;;;0.59;60.47
72587;BME280;60621;49.576;11.024;2023-04-06T03:57:04;98609.03;;;0.57;60.21
72587;BME280;60621;49.576;11.024;2023-04-06T03:58:06;98598.63;;;0.57;60.08
72587;BME280;60621;49.576;11.024;2023-04-06T03:59:07;98599.28;;;0.48;60.20
72587;BME280;60621;49.576;11.024;2023-04-06T04:00:10;98604.47;;;0.48;60.51
72587;BME280;60621;49.576;11.024;2023-04-06T04:01:11;98602.44;;;0.45;60.39
72587;BME280;60621;49.576;11.024;2023-04-06T04:02:13;98599.47;;;0.52;60.36
72587;BME280;60621;49.576;11.024;2023-04-06T04:03:14;98603.13;;;0.51;60.14
72587;BME280;60621;49.576;11.024;2023-04-06T04:04:16;98604.88;;;0.37;60.87
72587;BME280;60621;49.576;11.024;2023-04-06T04:05:18;98603.88;;;0.33;60.91
72587;BME280;60621;49.576;11.024;2023-04-06T04:06:19;98603.81;;;0.38;60.49
72587;BME280;60621;49.576;11.024;2023-04-06T04:07:21;98602.06;;;0.33;61.14
72587;BME280;60621;49.576;11.024;2023-04-06T04:08:24;98603.34;;;0.36;61.10
72587;BME280;60621;49.576;11.024;2023-04-06T04:09:26;98603.19;;;0.27;60.88
72587;BME280;60621;49.576;11.024;2023-04-06T04:10:30;98607.06;;;0.30;61.33
72587;BME280;60621;49.576;11.024;2023-04-06T04:11:31;98603.47;;;0.25;61.43
72587;BME280;60621;49.576;11.024;2023-04-06T04:12:33;98603.75;;;0.24;61.43
72587;BME280;60621;49.576;11.024;2023-04-06T04:13:34;98610.72;;;0.29;61.43
72587;BME280;60621;49.576;11.024;2023-04-06T04:14:36;98610.97;;;0.27;61.63
72587;BME280;60621;49.576;11.024;2023-04-06T04:15:37;98609.16;;;0.28;61.14
72587;BME280;60621;49.576;11.024;2023-04-06T04:16:39;98607.59;;;0.27;61.68
72587;BME280;60621;49.576;11.024;2023-04-06T04:17:41;98609.44;;;0.26;61.38
72587;BME280;60621;49.576;11.024;2023-04-06T04:18:44;98605.91;;;0.17;61.61
72587;BME280;60621;49.576;11.024;2023-04-06T04:19:48;98609.28;;;0.17;61.49
72587;BME280;60621;49.576;11.024;2023-04-06T04:20:49;98606.56;;;0.28;61.61
72587;BME280;60621;49.576;11.024;2023-04-06T04:21:51;98607.06;;;0.30;61.21
72587;BME280;60621;49.576;11.024;2023-04-06T04:22:52;98612.19;;;0.35;61.29
72587;BME280;60621;49.576;11.024;2023-04-06T04:23:54;98606.34;;;0.24;61.50
72587;BME280;60621;49.576;11.024;2023-04-06T04:24:55;98615.47;;;0.21;62.32
72587;BME280;60621;49.576;11.024;2023-04-06T04:25:57;98618.66;;;0.13;61.52
72587;BME280;60621;49.576;11.024;2023-04-06T04:26:59;98612.75;;;0.08;62.04
72587;BME280;60621;49.576;11.024;2023-04-06T04:28:02;98619.16;;;0.15;61.96
72587;BME280;60621;49.576;11.024;2023-04-06T04:29:03;98604.53;;;0.24;61.89
72587;BME280;60621;49.576;11.024;2023-04-06T04:30:06;98611.19;;;0.31;61.76
72587;BME280;60621;49.576;11.024;2023-04-06T04:31:07;98610.34;;;0.35;61.17
72587;BME280;60621;49.576;11.024;2023-04-06T04:32:09;98609.59;;;0.35;61.67
72587;BME280;60621;49.576;11.024;2023-04-06T04:33:10;98615.53;;;0.35;61.56
72587;BME280;60621;49.576;11.024;2023-04-06T04:34:12;98612.97;;;0.35;61.14
72587;BME280;60621;49.576;11.024;2023-04-06T04:35:13;98612.44;;;0.33;61.43
72587;BME280;60621;49.576;11.024;2023-04-06T04:36:15;98615.31;;;0.32;61.39
72587;BME280;60621;49.576;11.024;2023-04-06T04:37:17;98615.69;;;0.25;61.02
72587;BME280;60621;49.576;11.024;2023-04-06T04:38:18;98615.22;;;0.18;61.33
72587;BME280;60621;49.576;11.024;2023-04-06T04:39:20;98612.44;;;0.14;61.60
72587;BME280;60621;49.576;11.024;2023-04-06T04:40:21;98616.63;;;0.10;61.15
72587;BME280;60621;49.576;11.024;2023-04-06T04:41:23;98618.19;;;0.11;61.82
72587;BME280;60621;49.576;11.024;2023-04-06T04:42:24;98617.88;;;0.13;61.57
72587;BME280;60621;49.576;11.024;2023-04-06T04:43:26;98614.47;;;0.17;61.21
72587;BME280;60621;49.576;11.024;2023-04-06T04:44:27;98618.59;;;0.18;61.12
72587;BME280;60621;49.576;11.024;2023-04-06T04:45:29;98623.31;;;0.16;61.68
72587;BME280;60621;49.576;11.024;2023-04-06T04:46:31;98620.41;;;0.18;61.34
72587;BME280;60621;49.576;11.024;2023-04-06T04:47:32;98623.59;;;0.15;61.56
72587;BME280;60621;49.576;11.024;2023-04-06T04:48:34;98628.50;;;0.16;61.08
72587;BME280;60621;49.576;11.024;2023-04-06T04:49:35;98616.97;;;0.04;61.93
72587;BME280;60621;49.576;11.024;2023-04-06T04:50:37;98623.41;;;0.06;62.27
72587;BME280;60621;49.576;11.024;2023-04-06T04:51:39;98622.09;;;0.09;61.78
72587;BME280;60621;49.576;11.024;2023-04-06T04:52:40;98614.88;;;0.06;61.45
72587;BME280;60621;49.576;11.024;2023-04-06T04:53:42;98615.81;;;0.15;61.69
72587;BME280;60621;49.576;11.024;2023-04-06T04:54:43;98619.38;;;0.19;61.46
72587;BME280;60621;49.576;11.024;2023-04-06T04:55:45;98621.97;;;0.19;61.27
72587;BME280;60621;49.576;11.024;2023-04-06T04:56:47;98621.81;;;0.10;60.97
72587;BME280;60621;49.576;11.024;2023-04-06T04:57:48;98622.84;;;0.09;61.48
72587;BME280;60621;49.576;11.024;2023-04-06T04:58:49;98620.06;;;0.06;60.86
72587;BME280;60621;49.576;11.024;2023-04-06T04:59:52;98624.69;;;0.09;62.04
72587;BME280;60621;49.576;11.024;2023-04-06T05:00:54;98622.09;;;0.09;61.38
72587;BME280;60621;49.576;11.024;2023-04-06T05:01:56;98618.72;;;0.08;61.36
72587;BME280;60621;49.576;11.024;2023-04-06T05:02:58;98619.22;;;0.10;61.89
72587;BME280;60621;49.576;11.024;2023-04-06T05:03:59;98616.41;;;0.07;61.55
72587;BME280;60621;49.576;11.024;2023-04-06T05:05:01;98623.97;;;0.03;61.87
72587;BME280;60621;49.576;11.024;2023-04-06T05:06:03;98618.78;;;0.03;61.81
72587;BME280;60621;49.576;11.024;2023-04-06T05:07:08;98624.75;;;0.04;61.29
72587;BME280;60621;49.576;11.024;2023-04-06T05:08:11;98626.28;;;0.05;61.80
72587;BME280;60621;49.576;11.024;2023-04-06T05:09:13;98624.47;;;0.05;61.52
72587;BME280;60621;49.576;11.024;2023-04-06T05:10:14;98618.34;;;-0.04;61.97
72587;BME280;60621;49.576;11.024;2023-04-06T05:11:16;98624.25;;;0.02;62.50
72587;BME280;60621;49.576;11.024;2023-04-06T05:12:18;98618.50;;;0.05;62.01
72587;BME280;60621;49.576;11.024;2023-04-06T05:13:20;98626.78;;;0.07;62.22
72587;BME280;60621;49.576;11.024;2023-04-06T05:14:22;98631.75;;;0.03;62.36
72587;BME280;60621;49.576;11.024;2023-04-06T05:15:23;98626.28;;;0.05;62.57
72587;BME280;60621;49.576;11.024;2023-04-06T05:16:25;98615.34;;;0.08;62.73
72587;BME280;60621;49.576;11.024;2023-04-06T05:17:27;98627.16;;;0.19;62.43
72587;BME280;60621;49.576;11.024;2023-04-06T05:18:29;98627.88;;;0.24;62.22
72587;BME280;60621;49.576;11.024;2023-04-06T05:19:30;98629.66;;;0.29;61.51
72587;BME280;60621;49.576;11.024;2023-04-06T05:20:33;98631.47;;;0.29;61.86
72587;BME280;60621;49.576;11.024;2023-04-06T05:21:34;98621.09;;;0.29;61.62
72587;BME280;60621;49.576;11.024;2023-04-06T05:22:36;98623.47;;;0.25;61.15
72587;BME280;60621;49.576;11.024;2023-04-06T05:23:37;98624.22;;;0.25;61.94
72587;BME280;60621;49.576;11.024;2023-04-06T05:24:39;98628.06;;;0.28;62.12
72587;BME280;60621;49.576;11.024;2023-04-06T05:25:41;98630.69;;;0.28;61.75
72587;BME280;60621;49.576;11.024;2023-04-06T05:26:43;98627.97;;;0.38;61.47